Time;durP1;ratioP1;P1;durP2;ratioP2;P2;SDS_P1;SDS_P2;PMS_P1;PMS_P2;Temp;Humidity;BMP_temperature;BMP_pressure;BME280_temperature;BME280_humidity;BME280_pressure;Samples;Min_cycle;Max_cycle;Signal;HPM_P1;HPM_P2
2021/04/28 00:00:28;;;;;;;;;;;;;;;3.76;77.72;100492.19;5091363;28;19950;-67
2021/04/28 00:02:55;;;;;;;;;;;;;;;3.70;78.10;100479.97;5090546;28;20268;-67
2021/04/28 00:05:22;;;;;;;;;;;;;;;3.70;77.97;100482.66;5090695;28;19924;-69
2021/04/28 00:07:48;;;;;;;;;;;;;;;3.61;78.56;100483.19;5090939;28;20315;-69
2021/04/28 00:10:15;;;;;;;;;;;;;;;3.57;79.31;100477.13;5091179;28;20380;-69
2021/04/28 00:12:41;;;;;;;;;;;;;;;3.61;78.25;100475.13;5090854;28;20395;-69
2021/04/28 00:15:08;;;;;;;;;;;;;;;3.58;78.34;100473.50;5090525;28;19924;-69
2021/04/28 00:17:34;;;;;;;;;;;;;;;3.63;77.80;100476.75;5091122;28;19931;-68
2021/04/28 00:20:01;;;;;;;;;;;;;;;3.68;77.22;100473.81;5090921;28;19924;-69
2021/04/28 00:22:27;;;;;;;;;;;;;;;3.69;76.34;100478.25;5090971;28;19924;-65
2021/04/28 00:24:52;;;;;;;;;;;;;;;3.73;76.03;100471.75;5090704;28;19924;-66
2021/04/28 00:27:18;;;;;;;;;;;;;;;3.67;76.83;100469.41;5090825;28;20010;-66
2021/04/28 00:29:44;;;;;;;;;;;;;;;3.53;78.38;100464.81;5090866;28;19931;-67
2021/04/28 00:32:10;;;;;;;;;;;;;;;3.47;78.37;100459.78;5090642;28;19924;-69
2021/04/28 00:34:35;;;;;;;;;;;;;;;3.43;78.94;100467.13;5094060;28;19924;-69
2021/04/28 00:37:02;;;;;;;;;;;;;;;3.47;78.09;100457.97;5094466;28;20387;-71
2021/04/28 00:39:28;;;;;;;;;;;;;;;3.51;77.35;100462.22;5094715;28;19970;-69
2021/04/28 00:41:54;;;;;;;;;;;;;;;3.65;74.88;100464.13;5094301;28;20410;-69
2021/04/28 00:44:20;;;;;;;;;;;;;;;3.63;76.30;100454.44;5094591;28;19963;-70
2021/04/28 00:46:46;;;;;;;;;;;;;;;3.66;75.11;100452.44;5094234;28;19924;-70
2021/04/28 00:49:12;;;;;;;;;;;;;;;3.52;76.59;100438.94;5094021;28;20419;-69
2021/04/28 00:51:38;;;;;;;;;;;;;;;3.52;76.66;100441.63;5094446;28;20338;-70
2021/04/28 00:54:05;;;;;;;;;;;;;;;3.50;76.47;100441.72;5076035;28;19928;-70
2021/04/28 00:56:31;;;;;;;;;;;;;;;3.51;76.11;100448.81;5075489;28;19981;-69
2021/04/28 00:58:57;;;;;;;;;;;;;;;3.54;76.07;100453.16;5076091;28;19924;-69
2021/04/28 01:01:24;;;;;;;;;;;;;;;3.38;77.84;100441.50;5094139;28;20010;-69
2021/04/28 01:03:50;;;;;;;;;;;;;;;3.31;78.87;100441.00;5075137;28;19978;-69
2021/04/28 01:06:17;;;;;;;;;;;;;;;3.14;80.59;100437.44;5075686;28;19931;-66
2021/04/28 01:08:43;;;;;;;;;;;;;;;3.12;81.20;100436.63;5094432;28;19924;-66
2021/04/28 01:11:10;;;;;;;;;;;;;;;2.99;82.70;100439.13;5076064;28;19925;-66
2021/04/28 01:13:51;;;;;;;;;;;;;;;2.88;83.75;100432.63;5076022;28;19931;-68
2021/04/28 01:16:18;;;;;;;;;;;;;;;2.78;84.76;100433.13;5076151;28;19924;-69
2021/04/28 01:18:44;;;;;;;;;;;;;;;2.66;86.61;100428.41;5076047;28;20390;-68
2021/04/28 01:21:11;;;;;;;;;;;;;;;2.66;86.36;100433.78;5075973;28;19933;-68
2021/04/28 01:23:40;;;;;;;;;;;;;;;2.60;86.88;100431.41;5075475;28;19924;-66
2021/04/28 01:26:07;;;;;;;;;;;;;;;2.48;88.19;100423.03;5059029;28;19931;-66
2021/04/28 01:28:35;;;;;;;;;;;;;;;2.40;88.73;100433.31;5094889;28;19924;-66
2021/04/28 01:31:04;;;;;;;;;;;;;;;2.23;89.75;100423.47;5094760;28;19975;-66
2021/04/28 01:33:32;;;;;;;;;;;;;;;2.11;92.33;100422.28;5075634;28;19960;-70
2021/04/28 01:36:00;;;;;;;;;;;;;;;1.97;93.90;100417.63;5076565;28;19970;-70
2021/04/28 01:38:28;;;;;;;;;;;;;;;1.83;95.20;100417.44;5075970;28;19924;-70
2021/04/28 01:40:55;;;;;;;;;;;;;;;1.75;96.64;100411.59;5093318;28;19924;-69
2021/04/28 01:43:21;;;;;;;;;;;;;;;1.66;97.42;100410.25;5075141;28;19924;-69
2021/04/28 01:45:49;;;;;;;;;;;;;;;1.64;98.65;100405.00;5075044;28;19928;-69
2021/04/28 01:48:16;;;;;;;;;;;;;;;1.63;98.84;100407.72;5092870;28;20445;-66
2021/04/28 01:50:42;;;;;;;;;;;;;;;1.63;99.71;100402.38;5093340;28;19924;-67
2021/04/28 01:53:08;;;;;;;;;;;;;;;1.57;100.00;100397.34;5092977;28;19963;-67
2021/04/28 01:55:34;;;;;;;;;;;;;;;1.53;100.00;100399.28;5074880;28;19924;-67
2021/04/28 01:58:19;;;;;;;;;;;;;;;1.50;100.00;100396.75;5093225;28;20072;-69
2021/04/28 02:00:46;;;;;;;;;;;;;;;1.54;100.00;100400.13;5074666;28;19935;-70
2021/04/28 02:03:12;;;;;;;;;;;;;;;1.54;100.00;100400.13;5092568;28;20312;-68
2021/04/28 02:05:38;;;;;;;;;;;;;;;1.56;100.00;100388.41;5074280;28;20357;-68
2021/04/28 02:08:04;;;;;;;;;;;;;;;1.46;100.00;100387.16;5074836;28;19932;-68
2021/04/28 02:10:31;;;;;;;;;;;;;;;1.44;100.00;100383.69;5074692;28;19924;-68
2021/04/28 02:13:01;;;;;;;;;;;;;;;1.36;100.00;100378.69;5074600;28;19924;-68
2021/04/28 02:15:31;;;;;;;;;;;;;;;1.35;100.00;100385.00;5074454;28;19932;-68
2021/04/28 02:18:02;;;;;;;;;;;;;;;1.37;100.00;100375.09;5074495;28;20057;-68
2021/04/28 02:20:28;;;;;;;;;;;;;;;1.35;100.00;100376.97;5057835;28;20346;-68
2021/04/28 02:23:09;;;;;;;;;;;;;;;1.41;100.00;100383.84;5074232;28;19928;-68
2021/04/28 02:25:35;;;;;;;;;;;;;;;1.36;100.00;100370.66;5074246;28;19931;-68
2021/04/28 02:28:07;;;;;;;;;;;;;;;1.40;100.00;100372.25;5074425;28;19924;-69
2021/04/28 02:30:39;;;;;;;;;;;;;;;1.37;100.00;100375.09;5074461;28;19931;-69
2021/04/28 02:33:05;;;;;;;;;;;;;;;1.39;100.00;100367.88;5073873;28;19928;-69
2021/04/28 02:35:57;;;;;;;;;;;;;;;1.34;100.00;100365.41;5089866;28;19924;-69
2021/04/28 02:38:40;;;;;;;;;;;;;;;1.30;100.00;100357.63;5073905;28;19931;-69
2021/04/28 02:41:08;;;;;;;;;;;;;;;1.25;100.00;100357.81;5074287;28;19931;-69
2021/04/28 02:43:37;;;;;;;;;;;;;;;1.23;100.00;100353.47;5073925;28;19934;-69
2021/04/28 02:46:13;;;;;;;;;;;;;;;1.22;100.00;100354.44;5091956;28;19932;-69
2021/04/28 02:48:43;;;;;;;;;;;;;;;1.20;100.00;100349.16;5074286;28;19931;-69
2021/04/28 02:51:30;;;;;;;;;;;;;;;1.23;100.00;100361.50;5070331;28;20366;-67
2021/04/28 02:53:57;;;;;;;;;;;;;;;1.21;100.00;100352.72;5091730;28;19931;-69
2021/04/28 02:56:24;;;;;;;;;;;;;;;1.12;100.00;100348.66;5072979;28;19924;-69
2021/04/28 02:58:51;;;;;;;;;;;;;;;1.10;100.00;100346.06;5073943;28;19935;-69
2021/04/28 03:01:18;;;;;;;;;;;;;;;1.06;100.00;100343.63;5073991;28;19925;-69
2021/04/28 03:03:44;;;;;;;;;;;;;;;0.98;100.00;100350.19;5091052;28;19924;-67
2021/04/28 03:06:21;;;;;;;;;;;;;;;0.98;100.00;100344.84;5073714;28;20391;-70
2021/04/28 03:08:56;;;;;;;;;;;;;;;0.98;100.00;100341.31;5091681;28;19924;-68
2021/04/28 03:11:23;;;;;;;;;;;;;;;0.97;100.00;100344.91;5073425;28;19928;-69
2021/04/28 03:13:49;;;;;;;;;;;;;;;0.86;100.00;100344.56;5091465;28;19924;-68
2021/04/28 03:16:17;;;;;;;;;;;;;;;0.71;100.00;100343.44;5091620;28;19924;-69
2021/04/28 03:18:44;;;;;;;;;;;;;;;0.64;100.00;100337.53;5091639;28;20355;-67
2021/04/28 03:21:11;;;;;;;;;;;;;;;0.62;100.00;100342.09;5056602;28;20000;-68
2021/04/28 03:23:41;;;;;;;;;;;;;;;0.56;100.00;100337.00;5073497;28;20394;-69
2021/04/28 03:26:09;;;;;;;;;;;;;;;0.49;100.00;100333.75;5091147;28;19925;-70
2021/04/28 03:28:36;;;;;;;;;;;;;;;0.44;100.00;100333.09;5073290;28;19924;-68
2021/04/28 03:31:02;;;;;;;;;;;;;;;0.37;100.00;100329.84;5091852;28;20379;-69
2021/04/28 03:33:31;;;;;;;;;;;;;;;0.29;100.00;100332.00;5073679;28;20049;-69
2021/04/28 03:36:05;;;;;;;;;;;;;;;0.28;100.00;100336.47;5056393;28;19924;-69
2021/04/28 03:38:51;;;;;;;;;;;;;;;0.22;100.00;100330.53;5090927;28;19931;-68
2021/04/28 03:41:18;;;;;;;;;;;;;;;0.22;100.00;100330.53;5073468;28;19931;-67
2021/04/28 03:43:45;;;;;;;;;;;;;;;0.19;100.00;100330.66;5072433;28;19966;-69
2021/04/28 03:46:13;;;;;;;;;;;;;;;0.13;100.00;100329.13;5090889;28;20392;-67
2021/04/28 03:48:46;;;;;;;;;;;;;;;0.05;100.00;100333.94;5073553;28;19946;-69
2021/04/28 03:51:12;;;;;;;;;;;;;;;-0.02;100.00;100331.53;5090603;28;19924;-68
2021/04/28 03:54:16;;;;;;;;;;;;;;;-0.10;100.00;100330.16;4992400;28;19932;-68
2021/04/28 03:56:45;;;;;;;;;;;;;;;-0.16;100.00;100331.28;4992339;28;20416;-69
2021/04/28 03:59:12;;;;;;;;;;;;;;;-0.20;100.00;100327.00;5039599;28;20354;-69
2021/04/28 04:01:38;;;;;;;;;;;;;;;-0.22;100.00;100321.72;5070740;28;20342;-69
2021/04/28 04:04:08;;;;;;;;;;;;;;;-0.20;100.00;100322.53;5052778;28;19955;-69
2021/04/28 04:06:49;;;;;;;;;;;;;;;-0.22;100.00;100327.06;5070814;28;19932;-69
2021/04/28 04:09:38;;;;;;;;;;;;;;;-0.22;100.00;100327.06;5069218;28;19981;-68
2021/04/28 04:12:05;;;;;;;;;;;;;;;-0.22;100.00;100329.72;5056909;28;19929;-69
2021/04/28 04:14:46;;;;;;;;;;;;;;;-0.20;100.00;100330.53;5056814;28;19925;-69
2021/04/28 04:17:13;;;;;;;;;;;;;;;-0.14;100.00;100337.41;5064974;28;20411;-69
2021/04/28 04:19:40;;;;;;;;;;;;;;;-0.10;100.00;100331.00;5076635;28;19928;-69
2021/04/28 04:22:23;;;;;;;;;;;;;;;-0.04;100.00;100325.41;5095011;28;19968;-69
2021/04/28 04:25:08;;;;;;;;;;;;;;;-0.01;100.00;100325.28;5094719;28;19928;-66
2021/04/28 04:27:35;;;;;;;;;;;;;;;0.02;100.00;100332.28;5076524;28;19977;-69
2021/04/28 04:30:18;;;;;;;;;;;;;;;0.08;100.00;100325.78;5076237;28;20384;-69
2021/04/28 04:33:02;;;;;;;;;;;;;;;0.27;100.00;100329.41;5094577;28;19989;-69
2021/04/28 04:35:44;;;;;;;;;;;;;;;0.35;100.00;100331.72;5093713;28;19928;-70
2021/04/28 04:38:29;;;;;;;;;;;;;;;0.63;100.00;100330.47;5094319;28;20045;-72
2021/04/28 04:41:18;;;;;;;;;;;;;;;0.79;100.00;100334.16;5094603;28;19924;-69
2021/04/28 04:43:55;;;;;;;;;;;;;;;0.99;100.00;100332.34;5076246;28;19934;-69
2021/04/28 04:46:24;;;;;;;;;;;;;;;1.19;100.00;100339.41;5094388;28;20507;-66
2021/04/28 04:48:50;;;;;;;;;;;;;;;1.32;100.00;100337.00;5092363;28;19961;-67
2021/04/28 04:51:17;;;;;;;;;;;;;;;1.52;100.00;100337.81;5094308;28;19924;-66
2021/04/28 04:53:42;;;;;;;;;;;;;;;1.74;100.00;100335.81;5075666;28;19924;-67
2021/04/28 04:56:08;;;;;;;;;;;;;;;1.88;100.00;100331.56;5092971;28;19973;-66
2021/04/28 04:58:34;;;;;;;;;;;;;;;2.02;100.00;100342.44;5094588;28;20379;-65
2021/04/28 05:01:00;;;;;;;;;;;;;;;2.12;100.00;100340.97;5094051;28;19950;-66
2021/04/28 05:03:26;;;;;;;;;;;;;;;2.28;100.00;100345.56;5093593;28;19967;-66
2021/04/28 05:05:52;;;;;;;;;;;;;;;2.42;100.00;100342.13;5093545;28;19977;-67
2021/04/28 05:08:19;;;;;;;;;;;;;;;2.54;100.00;100346.84;5094270;28;20407;-66
2021/04/28 05:10:44;;;;;;;;;;;;;;;2.67;100.00;100341.66;5076113;28;19924;-66
2021/04/28 05:13:10;;;;;;;;;;;;;;;2.79;100.00;100338.34;5093870;28;20403;-66
2021/04/28 05:15:36;;;;;;;;;;;;;;;2.94;100.00;100333.94;5092886;28;19969;-67
2021/04/28 05:18:02;;;;;;;;;;;;;;;3.14;100.00;100331.94;5089153;28;20336;-66
2021/04/28 05:20:28;;;;;;;;;;;;;;;3.31;100.00;100330.97;5091987;28;20585;-66
2021/04/28 05:22:54;;;;;;;;;;;;;;;3.41;100.00;100326.84;5093621;28;19931;-71
2021/04/28 05:25:59;;;;;;;;;;;;;;;3.59;100.00;100329.41;5024193;28;19976;-70
2021/04/28 05:28:24;;;;;;;;;;;;;;;3.73;100.00;100326.78;5013209;28;19925;-71
2021/04/28 05:30:50;;;;;;;;;;;;;;;3.96;100.00;100324.53;5053599;28;19928;-70
2021/04/28 05:33:16;;;;;;;;;;;;;;;4.19;98.18;100323.13;5092243;28;19924;-70
2021/04/28 05:35:42;;;;;;;;;;;;;;;4.57;96.45;100327.09;5093189;28;20410;-70
2021/04/28 05:38:08;;;;;;;;;;;;;;;4.97;93.00;100325.44;5093156;28;19982;-70
2021/04/28 05:40:34;;;;;;;;;;;;;;;5.32;88.84;100321.44;5089204;28;19935;-71
2021/04/28 05:43:01;;;;;;;;;;;;;;;5.75;87.68;100326.66;5085935;28;19924;-71
2021/04/28 05:45:27;;;;;;;;;;;;;;;6.08;84.12;100325.34;5073491;28;20430;-72
2021/04/28 05:47:52;;;;;;;;;;;;;;;6.45;83.05;100325.47;5077921;28;19964;-70
2021/04/28 05:50:18;;;;;;;;;;;;;;;6.93;78.16;100326.63;5088699;28;19924;-71
2021/04/28 05:52:45;;;;;;;;;;;;;;;7.33;74.37;100308.34;5074175;28;19969;-71
2021/04/28 05:55:11;;;;;;;;;;;;;;;7.48;71.62;100308.19;5092677;28;19967;-70
2021/04/28 05:57:37;;;;;;;;;;;;;;;7.68;68.76;100309.38;5092205;28;19924;-69
2021/04/28 06:00:06;;;;;;;;;;;;;;;7.61;66.15;100314.38;5073449;28;20404;-70
2021/04/28 06:02:38;;;;;;;;;;;;;;;7.65;68.10;100313.19;5091599;28;19931;-69
2021/04/28 06:05:04;;;;;;;;;;;;;;;8.04;67.25;100315.66;5092250;28;19924;-70
2021/04/28 06:07:30;;;;;;;;;;;;;;;8.47;64.13;100306.94;5091614;28;19975;-69
2021/04/28 06:09:56;;;;;;;;;;;;;;;8.81;60.48;100316.91;5074739;28;19931;-68
2021/04/28 06:12:22;;;;;;;;;;;;;;;9.14;58.79;100309.72;5092026;28;20505;-70
2021/04/28 06:14:48;;;;;;;;;;;;;;;9.35;58.39;100304.41;5092651;28;20445;-69
2021/04/28 06:17:15;;;;;;;;;;;;;;;9.67;56.61;100309.88;5092400;28;20042;-69
2021/04/28 06:19:41;;;;;;;;;;;;;;;9.69;55.04;100304.31;5088608;28;19928;-66
2021/04/28 06:22:07;;;;;;;;;;;;;;;9.64;54.11;100301.13;5084188;28;20406;-66
2021/04/28 06:24:33;;;;;;;;;;;;;;;9.11;54.32;100310.00;5092279;28;19931;-66
2021/04/28 06:26:59;;;;;;;;;;;;;;;9.38;54.51;100298.75;5091550;28;19924;-64
2021/04/28 06:29:25;;;;;;;;;;;;;;;9.28;52.99;100304.06;5090329;28;20371;-66
2021/04/28 06:31:51;;;;;;;;;;;;;;;9.02;52.73;100301.63;5091928;28;19932;-64
2021/04/28 06:34:17;;;;;;;;;;;;;;;9.27;53.16;100309.59;5091844;28;19998;-65
2021/04/28 06:36:43;;;;;;;;;;;;;;;9.07;53.09;100303.97;5092107;28;19924;-65
2021/04/28 06:39:10;;;;;;;;;;;;;;;8.95;52.65;100294.13;5092006;28;19986;-68
2021/04/28 06:41:36;;;;;;;;;;;;;;;9.21;52.38;100302.84;5092241;28;19931;-69
2021/04/28 06:44:02;;;;;;;;;;;;;;;9.46;52.00;100304.38;5091269;28;20322;-65
2021/04/28 06:46:29;;;;;;;;;;;;;;;9.95;52.20;100296.66;5073564;28;19924;-63
2021/04/28 06:48:55;;;;;;;;;;;;;;;9.93;50.52;100300.47;5091511;28;19925;-65
2021/04/28 06:51:21;;;;;;;;;;;;;;;9.76;50.28;100304.66;5091904;28;19931;-65
2021/04/28 06:53:47;;;;;;;;;;;;;;;9.26;51.12;100300.63;5092184;28;19947;-65
2021/04/28 06:56:13;;;;;;;;;;;;;;;9.23;51.84;100297.28;5091382;28;20291;-64
2021/04/28 06:58:39;;;;;;;;;;;;;;;9.15;52.39;100298.81;5091617;28;19924;-65
2021/04/28 07:01:05;;;;;;;;;;;;;;;9.61;51.20;100288.69;5073116;28;19931;-64
2021/04/28 07:03:31;;;;;;;;;;;;;;;10.11;51.07;100293.47;5090694;28;20023;-66
2021/04/28 07:05:57;;;;;;;;;;;;;;;10.44;50.05;100288.03;5077778;28;20019;-65
2021/04/28 07:08:23;;;;;;;;;;;;;;;10.71;48.56;100279.28;5092009;28;19977;-66
2021/04/28 07:10:49;;;;;;;;;;;;;;;10.69;47.27;100282.16;5087843;28;20132;-64
2021/04/28 07:13:15;;;;;;;;;;;;;;;10.92;47.58;100281.09;5079227;28;19974;-64
2021/04/28 07:15:41;;;;;;;;;;;;;;;11.37;46.43;100276.03;5081155;28;19935;-64
2021/04/28 07:18:06;;;;;;;;;;;;;;;11.56;44.93;100277.06;5091103;28;19935;-66
2021/04/28 07:20:32;;;;;;;;;;;;;;;11.36;44.83;100270.75;5090877;28;19924;-65
2021/04/28 07:22:58;;;;;;;;;;;;;;;12.05;45.39;100275.22;5085460;28;19928;-65
2021/04/28 07:25:25;;;;;;;;;;;;;;;12.25;42.69;100268.88;5071497;28;19932;-64
2021/04/28 07:27:51;;;;;;;;;;;;;;;12.15;42.15;100267.03;5072363;28;20394;-64
2021/04/28 07:30:17;;;;;;;;;;;;;;;11.98;42.47;100263.19;5087885;28;19936;-69
2021/04/28 07:32:43;;;;;;;;;;;;;;;12.03;42.47;100268.22;5082900;28;19924;-68
2021/04/28 07:35:11;;;;;;;;;;;;;;;11.87;43.09;100266.06;5090008;28;19931;-68
2021/04/28 07:37:36;;;;;;;;;;;;;;;11.80;43.00;100257.59;5091000;28;19924;-69
2021/04/28 07:40:03;;;;;;;;;;;;;;;12.02;42.54;100258.31;5090567;28;19978;-70
2021/04/28 07:42:30;;;;;;;;;;;;;;;12.03;42.50;100260.06;5090917;28;19955;-70
2021/04/28 07:44:55;;;;;;;;;;;;;;;12.98;41.42;100257.28;5088749;28;19955;-70
2021/04/28 07:47:21;;;;;;;;;;;;;;;13.54;39.27;100256.22;5090458;28;19947;-71
2021/04/28 07:49:47;;;;;;;;;;;;;;;13.38;39.03;100256.91;5072918;28;20434;-70
2021/04/28 07:52:13;;;;;;;;;;;;;;;14.25;39.15;100255.44;5089468;28;19932;-70
2021/04/28 07:54:39;;;;;;;;;;;;;;;14.45;38.49;100261.56;5072584;28;19924;-70
2021/04/28 07:57:05;;;;;;;;;;;;;;;13.79;38.02;100256.47;5072270;28;19973;-70
2021/04/28 07:59:32;;;;;;;;;;;;;;;13.36;39.22;100249.91;5090639;28;19955;-70
2021/04/28 08:01:58;;;;;;;;;;;;;;;13.63;39.68;100249.00;5090511;28;19973;-71
2021/04/28 08:04:24;;;;;;;;;;;;;;;14.31;38.57;100244.75;5090586;28;19931;-70
2021/04/28 08:06:50;;;;;;;;;;;;;;;14.83;38.47;100241.13;5090649;28;19924;-71
2021/04/28 08:09:16;;;;;;;;;;;;;;;14.00;38.11;100249.78;5090214;28;19928;-69
2021/04/28 08:11:41;;;;;;;;;;;;;;;14.03;38.45;100249.47;5090111;28;19924;-69
2021/04/28 08:14:07;;;;;;;;;;;;;;;14.79;38.24;100233.41;5069950;28;20410;-70
2021/04/28 08:16:34;;;;;;;;;;;;;;;15.46;36.44;100227.97;5085416;28;19928;-70
2021/04/28 08:19:00;;;;;;;;;;;;;;;15.52;36.15;100235.47;5090271;28;19928;-70
2021/04/28 08:21:26;;;;;;;;;;;;;;;15.23;36.78;100227.75;5090095;28;19928;-65
2021/04/28 08:23:52;;;;;;;;;;;;;;;15.97;35.56;100227.00;5072698;28;19950;-65
2021/04/28 08:26:18;;;;;;;;;;;;;;;15.57;36.22;100219.44;5089635;28;20409;-65
2021/04/28 08:28:44;;;;;;;;;;;;;;;16.03;35.92;100220.81;5090414;28;19924;-65
2021/04/28 08:31:11;;;;;;;;;;;;;;;15.78;36.22;100220.81;5088291;28;19936;-71
2021/04/28 08:33:38;;;;;;;;;;;;;;;16.05;35.74;100208.69;5089968;28;19930;-65
2021/04/28 08:36:04;;;;;;;;;;;;;;;15.76;35.48;100211.91;5089308;28;19959;-64
2021/04/28 08:38:29;;;;;;;;;;;;;;;15.65;35.63;100218.59;5090412;28;20279;-65
2021/04/28 08:40:55;;;;;;;;;;;;;;;15.67;35.71;100222.00;5090494;28;19924;-71
2021/04/28 08:43:22;;;;;;;;;;;;;;;15.84;35.40;100205.63;5090031;28;19924;-72
2021/04/28 08:45:47;;;;;;;;;;;;;;;16.34;35.67;100203.66;5083405;28;19924;-72
2021/04/28 08:48:13;;;;;;;;;;;;;;;17.02;34.07;100204.09;5070361;28;20255;-71
2021/04/28 08:50:40;;;;;;;;;;;;;;;16.53;33.43;100206.00;5079827;28;19924;-66
2021/04/28 08:53:06;;;;;;;;;;;;;;;16.83;33.65;100205.38;5089552;28;19971;-65
2021/04/28 08:55:32;;;;;;;;;;;;;;;17.55;34.42;100191.41;5075612;28;19928;-65
2021/04/28 08:57:58;;;;;;;;;;;;;;;17.98;31.86;100199.13;5093451;28;19930;-64
2021/04/28 09:00:24;;;;;;;;;;;;;;;16.98;31.96;100203.63;5093979;28;20079;-65
2021/04/28 09:02:51;;;;;;;;;;;;;;;16.42;32.71;100192.66;5093479;28;20017;-66
2021/04/28 09:05:17;;;;;;;;;;;;;;;16.54;33.25;100198.63;5090806;28;20383;-65
2021/04/28 09:07:44;;;;;;;;;;;;;;;16.54;32.85;100193.16;5093830;28;19969;-65
2021/04/28 09:10:11;;;;;;;;;;;;;;;16.93;31.77;100195.09;5093308;28;20040;-65
2021/04/28 09:12:37;;;;;;;;;;;;;;;16.63;32.27;100192.09;5077631;28;19969;-64
2021/04/28 09:15:05;;;;;;;;;;;;;;;16.65;32.50;100190.03;5093287;28;19954;-65
2021/04/28 09:17:31;;;;;;;;;;;;;;;16.79;33.39;100191.16;5093659;28;19934;-65
2021/04/28 09:20:13;;;;;;;;;;;;;;;17.13;33.04;100186.38;5093605;28;19924;-65
2021/04/28 09:23:09;;;;;;;;;;;;;;;17.38;32.25;100178.84;5083138;28;19924;-64
2021/04/28 09:25:55;;;;;;;;;;;;;;;17.65;33.06;100182.94;5085925;28;19957;-69
2021/04/28 09:28:32;;;;;;;;;;;;;;;17.58;32.36;100173.72;5093092;28;19931;-66
2021/04/28 09:31:14;;;;;;;;;;;;;;;18.54;32.75;100174.00;5092371;28;20342;-65
2021/04/28 09:33:50;;;;;;;;;;;;;;;19.49;31.70;100164.97;5092498;28;19993;-65
2021/04/28 09:36:16;;;;;;;;;;;;;;;19.07;30.26;100156.50;5092932;28;19935;-63
2021/04/28 09:38:49;;;;;;;;;;;;;;;18.97;30.40;100159.53;5071787;28;19924;-66
2021/04/28 09:41:28;;;;;;;;;;;;;;;18.64;30.44;100161.84;5092218;28;19924;-72
2021/04/28 09:43:54;;;;;;;;;;;;;;;18.06;30.20;100157.91;5074768;28;20022;-70
2021/04/28 09:46:20;;;;;;;;;;;;;;;19.07;29.15;100151.00;5092902;28;19932;-72
2021/04/28 09:48:57;;;;;;;;;;;;;;;18.98;28.20;100152.16;5092616;28;19946;-73
2021/04/28 09:51:30;;;;;;;;;;;;;;;18.22;29.36;100158.75;5093628;28;19924;-73
2021/04/28 09:54:08;;;;;;;;;;;;;;;18.18;29.19;100160.16;5093808;28;19924;-72
2021/04/28 09:56:36;;;;;;;;;;;;;;;18.48;29.09;100154.66;5074835;28;19932;-72
2021/04/28 09:59:02;;;;;;;;;;;;;;;18.12;29.34;100153.53;5092960;28;20019;-66
2021/04/28 10:01:30;;;;;;;;;;;;;;;18.22;29.89;100156.84;5092578;28;19928;-66
2021/04/28 10:03:55;;;;;;;;;;;;;;;18.44;29.93;100145.09;5080798;28;20255;-66
2021/04/28 10:06:36;;;;;;;;;;;;;;;18.06;30.35;100149.66;5071075;28;19959;-66
2021/04/28 10:09:02;;;;;;;;;;;;;;;17.96;30.96;100150.94;5087046;28;20360;-72
2021/04/28 10:11:29;;;;;;;;;;;;;;;17.30;31.25;100146.00;5091027;28;19978;-72
2021/04/28 10:13:55;;;;;;;;;;;;;;;17.87;31.57;100150.16;5091660;28;19969;-72
2021/04/28 10:16:21;;;;;;;;;;;;;;;18.64;30.42;100139.88;5092301;28;19951;-73
2021/04/28 10:18:48;;;;;;;;;;;;;;;18.48;30.47;100144.53;5091165;28;19924;-66
2021/04/28 10:21:14;;;;;;;;;;;;;;;18.64;29.92;100143.47;5091934;28;20026;-66
2021/04/28 10:23:40;;;;;;;;;;;;;;;18.55;29.82;100145.47;5092001;28;19924;-66
2021/04/28 10:26:07;;;;;;;;;;;;;;;18.82;29.98;100139.47;5073447;28;19931;-66
2021/04/28 10:28:34;;;;;;;;;;;;;;;20.18;29.79;100136.75;5091874;28;19952;-66
2021/04/28 10:31:04;;;;;;;;;;;;;;;20.24;28.40;100140.59;5091624;28;19967;-66
2021/04/28 10:33:32;;;;;;;;;;;;;;;19.77;27.90;100134.72;5091121;28;20456;-65
2021/04/28 10:35:58;;;;;;;;;;;;;;;19.81;28.39;100133.31;5071193;28;19932;-65
2021/04/28 10:38:24;;;;;;;;;;;;;;;20.37;28.12;100129.63;5077310;28;19924;-71
2021/04/28 10:40:50;;;;;;;;;;;;;;;20.20;27.71;100128.28;5092027;28;19924;-71
2021/04/28 10:43:18;;;;;;;;;;;;;;;19.54;28.44;100130.28;5073000;28;19934;-72
2021/04/28 10:45:45;;;;;;;;;;;;;;;20.36;27.48;100129.84;5090478;28;19928;-71
2021/04/28 10:48:12;;;;;;;;;;;;;;;19.88;28.09;100123.22;5091106;28;19971;-72
2021/04/28 10:50:38;;;;;;;;;;;;;;;20.15;28.29;100128.03;5090625;28;20383;-71
2021/04/28 10:53:07;;;;;;;;;;;;;;;19.81;28.11;100116.78;5073339;28;19928;-71
2021/04/28 10:55:40;;;;;;;;;;;;;;;19.69;28.55;100119.19;5090926;28;19939;-71
2021/04/28 10:58:25;;;;;;;;;;;;;;;20.20;30.13;100109.00;5091789;28;19928;-71
2021/04/28 11:01:11;;;;;;;;;;;;;;;20.13;28.44;100114.47;5091050;28;19992;-71
2021/04/28 11:03:37;;;;;;;;;;;;;;;19.42;28.78;100106.28;5090012;28;19977;-72
2021/04/28 11:06:29;;;;;;;;;;;;;;;18.71;29.03;100105.09;5072849;28;19931;-65
2021/04/28 11:09:07;;;;;;;;;;;;;;;19.03;28.77;100106.53;5076527;28;19971;-65
2021/04/28 11:11:38;;;;;;;;;;;;;;;19.64;28.52;100104.34;5091260;28;19924;-65
2021/04/28 11:14:24;;;;;;;;;;;;;;;20.48;30.23;100094.28;5091244;28;19931;-65
2021/04/28 11:16:51;;;;;;;;;;;;;;;20.65;27.57;100100.31;5090474;28;20014;-66
2021/04/28 11:19:19;;;;;;;;;;;;;;;20.63;27.46;100099.66;5072209;28;20392;-65
2021/04/28 11:21:45;;;;;;;;;;;;;;;20.97;28.28;100090.47;5091396;28;19963;-65
2021/04/28 11:24:12;;;;;;;;;;;;;;;20.73;26.60;100091.88;5091138;28;19935;-65
2021/04/28 11:26:39;;;;;;;;;;;;;;;20.66;26.33;100086.31;5090688;28;19924;-65
2021/04/28 11:29:06;;;;;;;;;;;;;;;20.52;25.35;100079.03;5091128;28;20289;-65
2021/04/28 11:31:40;;;;;;;;;;;;;;;20.83;25.76;100075.81;5090581;28;19967;-67
2021/04/28 11:34:17;;;;;;;;;;;;;;;19.29;26.94;100077.56;5089609;28;19985;-65
2021/04/28 11:36:49;;;;;;;;;;;;;;;19.31;26.83;100072.72;5090867;28;19925;-65
2021/04/28 11:39:30;;;;;;;;;;;;;;;20.40;26.66;100070.50;5091309;28;19928;-69
2021/04/28 11:42:02;;;;;;;;;;;;;;;20.56;25.15;100058.28;5090288;28;19931;-69
2021/04/28 11:44:28;;;;;;;;;;;;;;;21.33;25.34;100069.09;5090489;28;19993;-69
2021/04/28 11:46:53;;;;;;;;;;;;;;;20.16;25.62;100060.84;5090845;28;20425;-69
2021/04/28 11:49:20;;;;;;;;;;;;;;;21.44;25.49;100057.41;5090082;28;20453;-65
2021/04/28 11:51:56;;;;;;;;;;;;;;;19.81;26.26;100050.69;5090787;28;19939;-70
2021/04/28 11:54:22;;;;;;;;;;;;;;;19.99;26.47;100049.31;5090590;28;19924;-70
2021/04/28 11:56:48;;;;;;;;;;;;;;;20.32;26.42;100048.66;5090605;28;20000;-71
2021/04/28 11:59:21;;;;;;;;;;;;;;;20.10;26.58;100048.75;5090389;28;19932;-70
2021/04/28 12:01:47;;;;;;;;;;;;;;;18.86;27.16;100047.31;5090658;28;19981;-65
2021/04/28 12:04:13;;;;;;;;;;;;;;;19.51;26.90;100056.38;5089480;28;19959;-66
2021/04/28 12:06:40;;;;;;;;;;;;;;;19.55;25.90;100056.84;5089708;28;19924;-66
2021/04/28 12:09:17;;;;;;;;;;;;;;;19.98;25.41;100039.38;5090528;28;20033;-66
2021/04/28 12:11:44;;;;;;;;;;;;;;;20.87;24.79;100041.22;5090166;28;20383;-67
2021/04/28 12:14:10;;;;;;;;;;;;;;;21.28;25.66;100030.22;5090191;28;19967;-67
2021/04/28 12:16:52;;;;;;;;;;;;;;;20.90;25.27;100018.75;5071992;28;20299;-67
2021/04/28 12:19:18;;;;;;;;;;;;;;;21.50;25.43;100022.56;5090487;28;19980;-67
2021/04/28 12:21:51;;;;;;;;;;;;;;;21.69;24.72;100018.13;5087816;28;19932;-68
2021/04/28 12:24:22;;;;;;;;;;;;;;;21.09;24.77;100018.13;5087854;28;19963;-68
2021/04/28 12:27:00;;;;;;;;;;;;;;;21.19;25.21;100027.69;5082932;28;20458;-68
2021/04/28 12:29:26;;;;;;;;;;;;;;;20.69;25.22;100014.22;5089419;28;19970;-67
2021/04/28 12:31:52;;;;;;;;;;;;;;;20.61;24.84;100013.56;5085633;28;19936;-67
2021/04/28 12:34:18;;;;;;;;;;;;;;;21.03;24.88;100009.63;5092831;28;19972;-67
2021/04/28 12:36:44;;;;;;;;;;;;;;;19.75;26.06;100015.69;5094226;28;19950;-67
2021/04/28 12:39:11;;;;;;;;;;;;;;;20.19;25.78;100011.72;5093453;28;19924;-67
2021/04/28 12:41:37;;;;;;;;;;;;;;;20.94;25.33;100015.56;5093947;28;19970;-67
2021/04/28 12:44:03;;;;;;;;;;;;;;;21.11;24.82;100008.59;5093209;28;19924;-67
2021/04/28 12:46:29;;;;;;;;;;;;;;;21.68;24.91;100002.63;5094149;28;19924;-67